Time;durP1;ratioP1;P1;durP2;ratioP2;P2;SDS_P1;SDS_P2;PMS_P1;PMS_P2;Temp;Humidity;BMP_temperature;BMP_pressure;BME280_temperature;BME280_humidity;BME280_pressure;Samples;Min_cycle;Max_cycle;Signal;HPM_P1;HPM_P2
2023/08/21 00:00:47;;;;;;;10.75;10.45;;;24.90;99.90;;;;;;6165518;23;20247;-79
2023/08/21 00:03:14;;;;;;;10.60;10.30;;;24.90;99.90;;;;;;6165762;23;20251;-78
2023/08/21 00:05:41;;;;;;;10.73;10.43;;;25.00;99.90;;;;;;6166381;23;20283;-79
2023/08/21 00:08:08;;;;;;;10.70;10.40;;;24.90;99.90;;;;;;6165305;23;20202;-80
2023/08/21 00:10:39;;;;;;;10.80;10.50;;;24.90;99.90;;;;;;6166133;23;20208;-79
2023/08/21 00:13:06;;;;;;;10.70;10.40;;;24.90;99.90;;;;;;6165489;23;20694;-79
2023/08/21 00:15:35;;;;;;;10.80;10.50;;;24.90;99.90;;;;;;6167159;23;20203;-79
2023/08/21 00:18:02;;;;;;;10.60;10.30;;;24.90;99.90;;;;;;6164315;23;20200;-79
2023/08/21 00:20:29;;;;;;;10.68;10.38;;;24.90;99.90;;;;;;6163936;23;20283;-79
2023/08/21 00:22:56;;;;;;;10.68;10.38;;;24.90;99.90;;;;;;6163565;23;20207;-79
2023/08/21 00:25:23;;;;;;;10.60;10.30;;;24.80;99.90;;;;;;6163644;23;20210;-79
2023/08/21 00:27:51;;;;;;;10.55;10.25;;;24.80;99.90;;;;;;6163882;23;20284;-78
2023/08/21 00:30:18;;;;;;;10.52;10.23;;;24.80;99.90;;;;;;6163833;23;20204;-79
2023/08/21 00:32:46;;;;;;;10.48;10.18;;;24.80;99.90;;;;;;6163452;23;20294;-79
2023/08/21 00:35:13;;;;;;;10.60;10.30;;;24.80;99.90;;;;;;6164388;23;20231;-78
2023/08/21 00:37:41;;;;;;;10.38;10.07;;;24.70;99.90;;;;;;6164040;23;20204;-79
2023/08/21 00:40:10;;;;;;;10.60;10.30;;;24.70;99.90;;;;;;6163931;23;20200;-79
2023/08/21 00:42:37;;;;;;;10.40;10.10;;;24.70;99.90;;;;;;6163709;23;20290;-79
2023/08/21 00:45:08;;;;;;;10.52;10.23;;;24.50;99.90;;;;;;6163895;23;20215;-78
2023/08/21 00:47:35;;;;;;;10.55;10.25;;;24.40;99.90;;;;;;6164209;23;20188;-79
2023/08/21 00:50:07;;;;;;;10.60;10.30;;;24.30;99.90;;;;;;6163683;23;20203;-79
2023/08/21 00:52:36;;;;;;;10.43;10.13;;;24.30;99.90;;;;;;6163640;23;20208;-78
2023/08/21 00:55:04;;;;;;;10.65;10.35;;;24.30;99.90;;;;;;6164033;23;20271;-79
2023/08/21 00:57:31;;;;;;;10.50;10.20;;;24.40;99.90;;;;;;6163275;23;20219;-79
2023/08/21 00:59:58;;;;;;;10.68;10.38;;;24.40;99.90;;;;;;6163802;23;20219;-79
2023/08/21 01:02:25;;;;;;;10.70;10.40;;;24.40;99.90;;;;;;6163961;23;20204;-79
2023/08/21 01:04:52;;;;;;;10.60;10.30;;;24.50;99.90;;;;;;6164049;23;20271;-79
2023/08/21 01:07:21;;;;;;;10.50;10.20;;;24.40;99.90;;;;;;6163578;23;20196;-79
2023/08/21 01:09:59;;;;;;;10.50;10.20;;;24.40;99.90;;;;;;6166835;23;20271;-78
2023/08/21 01:12:37;;;;;;;10.70;10.40;;;24.20;99.90;;;;;;6165990;23;20227;-79
2023/08/21 01:15:07;;;;;;;10.80;10.50;;;24.00;99.90;;;;;;6165853;23;20235;-78
2023/08/21 01:17:37;;;;;;;10.70;10.40;;;24.00;99.90;;;;;;6166949;23;20238;-79
2023/08/21 01:20:09;;;;;;;10.50;10.20;;;23.90;99.90;;;;;;6166841;23;20188;-78
2023/08/21 01:22:39;;;;;;;10.27;9.98;;;23.90;99.90;;;;;;6166972;23;20279;-79
2023/08/21 01:25:09;;;;;;;10.00;9.70;;;23.90;99.90;;;;;;6165752;23;20275;-79
2023/08/21 01:27:37;;;;;;;9.82;9.52;;;23.90;99.90;;;;;;6163956;23;20203;-79
2023/08/21 01:30:07;;;;;;;9.70;9.40;;;23.90;99.90;;;;;;6164305;23;20204;-79
2023/08/21 01:32:48;;;;;;;9.77;9.48;;;23.80;99.90;;;;;;6163670;23;20266;-78
2023/08/21 01:35:16;;;;;;;9.50;9.20;;;23.70;99.90;;;;;;6164549;23;20240;-78
2023/08/21 01:37:44;;;;;;;9.48;9.18;;;23.70;99.90;;;;;;6165371;23;20235;-79
2023/08/21 01:40:13;;;;;;;9.35;9.05;;;23.70;99.90;;;;;;6166767;23;20200;-78
2023/08/21 01:42:40;;;;;;;9.32;9.02;;;23.80;99.90;;;;;;6165432;23;20210;-79
2023/08/21 01:45:09;;;;;;;9.30;9.00;;;23.80;99.90;;;;;;6164328;23;20283;-79
2023/08/21 01:47:36;;;;;;;9.30;9.00;;;23.80;99.90;;;;;;6164599;23;20225;-79
2023/08/21 01:50:03;;;;;;;9.27;8.98;;;23.90;99.90;;;;;;6163802;23;20252;-78
2023/08/21 01:52:30;;;;;;;9.30;9.00;;;23.90;99.90;;;;;;6163621;23;20234;-78
2023/08/21 01:54:57;;;;;;;9.25;8.95;;;23.90;99.90;;;;;;6164363;23;20196;-79
2023/08/21 01:57:26;;;;;;;9.20;8.90;;;23.90;99.90;;;;;;6164220;23;20204;-78
2023/08/21 01:59:53;;;;;;;9.13;8.82;;;23.90;99.90;;;;;;6163850;23;20206;-79
2023/08/21 02:02:20;;;;;;;9.02;8.73;;;23.90;99.90;;;;;;6163392;23;20207;-79
2023/08/21 02:04:48;;;;;;;9.00;8.70;;;23.90;99.90;;;;;;6163508;23;20224;-79
2023/08/21 02:07:15;;;;;;;8.98;8.68;;;23.90;99.90;;;;;;6163666;23;20228;-78
2023/08/21 02:09:41;;;;;;;8.80;8.50;;;23.90;99.90;;;;;;6164125;23;20206;-78
2023/08/21 02:12:09;;;;;;;8.90;8.60;;;23.80;99.90;;;;;;6167349;23;20260;-79
2023/08/21 02:14:37;;;;;;;8.98;8.68;;;23.80;99.90;;;;;;6169927;23;20281;-78
2023/08/21 02:17:05;;;;;;;9.07;8.77;;;23.80;99.90;;;;;;6169035;23;20196;-78
2023/08/21 02:19:32;;;;;;;9.10;8.80;;;23.80;99.90;;;;;;6167548;23;20238;-79
2023/08/21 02:21:59;;;;;;;9.00;8.70;;;23.70;99.90;;;;;;6164453;23;20212;-79
2023/08/21 02:24:26;;;;;;;9.10;8.80;;;23.70;99.90;;;;;;6164262;23;20196;-78
2023/08/21 02:26:53;;;;;;;9.10;8.80;;;23.60;99.90;;;;;;6164603;23;20214;-79
2023/08/21 02:29:21;;;;;;;9.10;8.80;;;23.60;99.90;;;;;;6164165;23;20203;-78
2023/08/21 02:31:49;;;;;;;8.85;8.55;;;23.60;99.90;;;;;;6163524;23;20239;-79
2023/08/21 02:34:16;;;;;;;8.90;8.60;;;23.50;99.90;;;;;;6163841;23;20295;-79
2023/08/21 02:36:43;;;;;;;8.90;8.60;;;23.50;99.90;;;;;;6164230;23;20192;-78
2023/08/21 02:39:10;;;;;;;8.90;8.60;;;23.50;99.90;;;;;;6164435;23;20275;-78
2023/08/21 02:41:37;;;;;;;8.88;8.57;;;23.30;99.90;;;;;;6163748;23;20211;-78
2023/08/21 02:44:05;;;;;;;8.90;8.60;;;23.20;99.90;;;;;;6163730;23;20243;-78
2023/08/21 02:46:33;;;;;;;9.00;8.70;;;23.20;99.90;;;;;;6164456;23;20291;-78
2023/08/21 02:49:01;;;;;;;8.60;8.40;;;23.10;99.90;;;;;;6163917;23;20375;-78
2023/08/21 02:51:29;;;;;;;8.90;8.60;;;23.00;99.90;;;;;;6163684;23;20283;-79
2023/08/21 02:53:56;;;;;;;8.77;8.50;;;23.10;99.90;;;;;;6163809;23;20222;-78
2023/08/21 02:56:23;;;;;;;8.88;8.57;;;23.10;99.90;;;;;;6163673;23;20196;-79
2023/08/21 02:58:50;;;;;;;8.80;8.50;;;23.10;99.90;;;;;;6163977;23;20291;-79
2023/08/21 03:01:18;;;;;;;8.80;8.50;;;23.10;99.90;;;;;;6163700;23;20204;-78
2023/08/21 03:03:45;;;;;;;8.80;8.50;;;23.10;99.90;;;;;;6163630;23;20215;-79
2023/08/21 03:06:16;;;;;;;8.60;8.40;;;23.20;99.90;;;;;;6163484;23;20232;-79
2023/08/21 03:08:43;;;;;;;8.60;8.40;;;23.00;99.90;;;;;;6164833;23;20189;-78
2023/08/21 03:11:10;;;;;;;8.65;8.45;;;23.10;99.90;;;;;;6165549;23;20215;-79
2023/08/21 03:13:37;;;;;;;8.75;8.48;;;23.10;99.90;;;;;;6163709;23;20306;-78
2023/08/21 03:16:05;;;;;;;8.48;8.27;;;23.10;99.90;;;;;;6163334;23;20283;-79
2023/08/21 03:18:33;;;;;;;8.43;8.23;;;23.10;99.90;;;;;;6164081;23;20231;-78
2023/08/21 03:21:00;;;;;;;8.25;8.05;;;23.10;99.90;;;;;;6165183;23;20279;-79
2023/08/21 03:23:28;;;;;;;8.40;8.20;;;23.10;99.90;;;;;;6163727;23;20256;-79
2023/08/21 03:25:55;;;;;;;8.38;8.18;;;23.10;99.90;;;;;;6164038;23;20251;-78
2023/08/21 03:28:22;;;;;;;8.43;8.23;;;23.10;99.90;;;;;;6163315;23;20283;-79
2023/08/21 03:30:49;;;;;;;8.23;8.02;;;23.10;99.90;;;;;;6163562;23;20204;-79
2023/08/21 03:33:16;;;;;;;8.35;8.15;;;23.00;99.90;;;;;;6163924;23;20188;-78
2023/08/21 03:35:43;;;;;;;8.30;8.10;;;23.00;99.90;;;;;;6163863;23;20199;-79
2023/08/21 03:38:10;;;;;;;8.32;8.13;;;23.00;99.90;;;;;;6163549;23;20210;-78
2023/08/21 03:40:40;;;;;;;8.40;8.20;;;23.00;99.90;;;;;;6163763;23;20199;-79
2023/08/21 03:43:07;;;;;;;8.30;8.10;;;23.00;99.90;;;;;;6162983;23;20252;-78
2023/08/21 03:45:34;;;;;;;8.18;7.97;;;22.90;99.90;;;;;;6163316;23;20197;-78
2023/08/21 03:48:01;;;;;;;8.30;8.10;;;22.90;99.90;;;;;;6163745;23;20206;-78
2023/08/21 03:50:28;;;;;;;8.40;8.20;;;22.80;99.90;;;;;;6163472;23;20287;-79
2023/08/21 03:52:55;;;;;;;8.38;8.18;;;22.80;99.90;;;;;;6163612;23;20276;-79
2023/08/21 03:55:22;;;;;;;8.40;8.20;;;22.80;99.90;;;;;;6166655;23;20247;-78
2023/08/21 03:57:50;;;;;;;8.50;8.30;;;22.80;99.90;;;;;;6164151;23;20204;-79
2023/08/21 04:00:18;;;;;;;8.68;8.45;;;22.80;99.90;;;;;;6164171;23;20200;-78
2023/08/21 04:02:45;;;;;;;8.60;8.40;;;22.80;99.90;;;;;;6164281;23;20243;-79
2023/08/21 04:05:12;;;;;;;8.60;8.40;;;22.70;99.90;;;;;;6163801;23;20246;-78
2023/08/21 04:07:39;;;;;;;8.82;8.52;;;22.70;99.90;;;;;;6166962;23;20240;-79
2023/08/21 04:10:07;;;;;;;8.73;8.50;;;22.70;99.90;;;;;;6165150;23;20220;-77
2023/08/21 04:12:34;;;;;;;9.20;8.90;;;22.50;99.90;;;;;;6164953;23;20239;-77
2023/08/21 04:15:03;;;;;;;9.20;8.90;;;22.40;99.90;;;;;;6166017;23;20197;-77
2023/08/21 04:17:30;;;;;;;9.40;9.10;;;22.30;99.90;;;;;;6166655;23;20208;-79
2023/08/21 04:19:57;;;;;;;9.20;8.90;;;22.30;99.90;;;;;;6166326;23;20272;-77
2023/08/21 04:22:24;;;;;;;9.30;9.00;;;22.20;99.90;;;;;;6166373;23;20232;-77
2023/08/21 04:24:51;;;;;;;9.10;8.80;;;22.20;99.90;;;;;;6166368;23;20271;-77
2023/08/21 04:27:18;;;;;;;9.05;8.75;;;22.30;99.90;;;;;;6166306;23;20200;-77
2023/08/21 04:29:45;;;;;;;8.85;8.57;;;22.30;99.90;;;;;;6176323;23;20271;-77
2023/08/21 04:32:14;;;;;;;9.10;8.80;;;22.30;99.90;;;;;;6179968;23;20216;-77
2023/08/21 04:34:41;;;;;;;8.40;8.20;;;22.30;99.90;;;;;;6173793;23;20227;-78
2023/08/21 04:37:08;;;;;;;8.40;8.20;;;22.40;99.90;;;;;;6168147;23;20271;-77
2023/08/21 04:39:36;;;;;;;8.40;8.20;;;22.40;99.90;;;;;;6167135;23;20196;-77
2023/08/21 04:42:03;;;;;;;8.75;8.55;;;22.40;99.90;;;;;;6166688;23;20251;-77
2023/08/21 04:44:31;;;;;;;8.65;8.45;;;22.30;99.90;;;;;;6166388;23;20196;-77
2023/08/21 04:46:58;;;;;;;8.43;8.23;;;22.40;99.90;;;;;;6166477;23;20240;-77
2023/08/21 04:49:27;;;;;;;8.68;8.48;;;22.50;99.90;;;;;;6167000;23;20279;-77
2023/08/21 04:51:54;;;;;;;8.63;8.43;;;22.50;99.90;;;;;;6166368;23;20257;-77
2023/08/21 04:54:21;;;;;;;8.57;8.38;;;22.50;99.90;;;;;;6166185;23;20278;-78
2023/08/21 04:56:48;;;;;;;8.50;8.30;;;22.60;99.90;;;;;;6165646;23;20197;-77
2023/08/21 04:59:15;;;;;;;8.50;8.30;;;22.60;99.90;;;;;;6166657;23;20279;-77
2023/08/21 05:01:42;;;;;;;8.52;8.32;;;22.70;99.90;;;;;;6166116;23;20216;-77
2023/08/21 05:04:09;;;;;;;8.50;8.30;;;22.70;99.90;;;;;;6168506;23;20256;-77
2023/08/21 05:06:37;;;;;;;8.55;8.35;;;22.80;99.90;;;;;;6171182;23;20213;-77
2023/08/21 05:09:04;;;;;;;8.50;8.30;;;22.90;99.90;;;;;;6170914;23;20202;-77
2023/08/21 05:11:31;;;;;;;8.32;8.13;;;22.90;99.90;;;;;;6167715;23;20218;-77
2023/08/21 05:13:58;;;;;;;8.52;8.32;;;22.90;99.90;;;;;;6166821;23;20239;-77
2023/08/21 05:16:25;;;;;;;8.60;8.40;;;22.90;99.90;;;;;;6166281;23;20210;-77
2023/08/21 05:18:52;;;;;;;8.55;8.35;;;23.00;99.90;;;;;;6166173;23;20319;-78
2023/08/21 05:21:19;;;;;;;8.50;8.30;;;23.00;99.90;;;;;;6166333;23;20283;-78
2023/08/21 05:23:48;;;;;;;8.40;8.20;;;23.00;99.90;;;;;;6165488;23;20196;-78
2023/08/21 05:26:15;;;;;;;8.40;8.20;;;23.00;99.90;;;;;;6165751;23;20231;-78
2023/08/21 05:28:42;;;;;;;8.20;8.00;;;23.10;99.90;;;;;;6166547;23;20205;-77
2023/08/21 05:31:09;;;;;;;8.50;8.30;;;23.10;99.90;;;;;;6165695;23;20295;-77
2023/08/21 05:33:36;;;;;;;8.30;8.10;;;23.10;99.90;;;;;;6165726;23;20267;-78
2023/08/21 05:36:03;;;;;;;8.40;8.20;;;23.10;99.90;;;;;;6166424;23;20262;-77
2023/08/21 05:38:30;;;;;;;8.10;7.90;;;23.20;99.90;;;;;;6166128;23;20279;-77
2023/08/21 05:40:59;;;;;;;8.30;8.10;;;23.20;99.90;;;;;;6166457;23;20280;-77
2023/08/21 05:43:26;;;;;;;8.05;7.85;;;23.30;99.90;;;;;;6165555;23;20192;-77
2023/08/21 05:45:53;;;;;;;8.20;8.00;;;23.40;99.90;;;;;;6165909;23;20204;-77
2023/08/21 05:48:20;;;;;;;8.15;7.95;;;23.40;99.90;;;;;;6165661;23;20271;-78
2023/08/21 05:50:52;;;;;;;8.30;8.10;;;23.50;99.90;;;;;;6165940;23;20271;-77
2023/08/21 05:53:19;;;;;;;8.40;8.20;;;23.50;99.90;;;;;;6166577;23;20271;-79
2023/08/21 05:55:46;;;;;;;8.20;8.00;;;23.60;99.90;;;;;;6167627;23;20204;-81
2023/08/21 05:58:15;;;;;;;8.20;8.00;;;23.60;99.90;;;;;;6167592;23;20215;-78
2023/08/21 06:00:42;;;;;;;8.27;8.07;;;23.60;99.90;;;;;;6167398;23;20231;-78
2023/08/21 06:03:09;;;;;;;8.38;8.18;;;23.70;99.90;;;;;;6167434;23;20215;-78
2023/08/21 06:05:36;;;;;;;8.60;8.40;;;23.60;99.90;;;;;;6169601;23;20204;-84
2023/08/21 06:08:04;;;;;;;8.75;8.55;;;23.60;99.90;;;;;;6170435;23;20256;-81
2023/08/21 06:10:32;;;;;;;8.70;8.50;;;23.70;99.90;;;;;;6168816;23;20204;-79
2023/08/21 06:12:59;;;;;;;8.70;8.50;;;23.70;99.90;;;;;;6167822;23;20196;-78
2023/08/21 06:15:28;;;;;;;8.75;8.55;;;23.80;99.90;;;;;;6168567;23;20215;-78
2023/08/21 06:17:55;;;;;;;8.85;8.65;;;23.90;99.90;;;;;;6168659;23;20279;-78
2023/08/21 06:20:22;;;;;;;8.73;8.52;;;24.00;99.90;;;;;;6169300;23;20279;-78
2023/08/21 06:22:49;;;;;;;8.88;8.68;;;24.20;99.90;;;;;;6176391;23;20204;-78
2023/08/21 06:25:19;;;;;;;9.20;8.90;;;24.30;99.90;;;;;;6180673;23;20200;-77
2023/08/21 06:27:46;;;;;;;9.40;9.10;;;24.40;99.90;;;;;;6180518;23;20211;-78
2023/08/21 06:30:16;;;;;;;9.70;9.40;;;24.60;99.90;;;;;;6181398;23;20223;-79
2023/08/21 06:32:45;;;;;;;9.55;9.25;;;24.70;99.90;;;;;;6181189;23;20215;-79
2023/08/21 06:35:13;;;;;;;10.00;9.70;;;24.80;99.90;;;;;;6179604;23;20211;-78
2023/08/21 06:37:40;;;;;;;10.10;9.80;;;24.90;99.90;;;;;;6187397;23;20188;-80
2023/08/21 06:40:09;;;;;;;10.30;10.00;;;25.10;99.90;;;;;;6186820;23;20207;-80
2023/08/21 06:42:37;;;;;;;10.10;9.80;;;25.20;99.90;;;;;;6185901;23;20231;-80
2023/08/21 06:45:05;;;;;;;10.07;9.77;;;25.40;99.90;;;;;;6181017;23;20196;-81
2023/08/21 06:47:33;;;;;;;10.00;9.70;;;25.50;99.90;;;;;;6186559;23;20227;-81
2023/08/21 06:50:02;;;;;;;10.18;9.88;;;25.50;99.90;;;;;;6173932;23;20203;-82
2023/08/21 06:52:29;;;;;;;10.50;10.20;;;25.60;99.90;;;;;;6170035;23;20204;-82
2023/08/21 06:54:56;;;;;;;10.80;10.50;;;25.60;99.90;;;;;;6167248;23;20459;-80
2023/08/21 06:57:24;;;;;;;10.50;10.20;;;25.60;99.90;;;;;;6168589;23;20224;-81
2023/08/21 06:59:51;;;;;;;10.68;10.38;;;25.70;99.90;;;;;;6171515;23;20283;-81
2023/08/21 07:02:18;;;;;;;10.60;10.30;;;25.90;99.90;;;;;;6166864;23;20269;-80
2023/08/21 07:04:45;;;;;;;10.43;10.13;;;25.80;99.90;;;;;;6167427;23;20196;-80
2023/08/21 07:07:14;;;;;;;10.57;10.27;;;25.90;99.90;;;;;;6168167;23;20263;-80
2023/08/21 07:09:41;;;;;;;10.70;10.40;;;26.10;99.90;;;;;;6168962;23;20231;-81
2023/08/21 07:12:08;;;;;;;10.90;10.60;;;26.30;99.90;;;;;;6170308;23;20208;-82
2023/08/21 07:14:35;;;;;;;10.77;10.48;;;26.40;99.90;;;;;;6168468;23;20196;-80
2023/08/21 07:17:03;;;;;;;10.65;10.35;;;26.60;99.90;;;;;;6168679;23;20219;-79
2023/08/21 07:19:30;;;;;;;10.70;10.40;;;26.50;99.90;;;;;;6169545;23;20200;-81
2023/08/21 07:21:57;;;;;;;10.73;10.43;;;26.60;99.90;;;;;;6177983;23;20204;-79
2023/08/21 07:24:25;;;;;;;10.85;10.55;;;26.70;99.90;;;;;;6183315;23;20199;-80
2023/08/21 07:26:52;;;;;;;10.93;10.63;;;26.60;99.90;;;;;;6184794;23;20235;-80
2023/08/21 07:29:19;;;;;;;10.85;10.55;;;26.70;99.90;;;;;;6185556;23;20196;-80
2023/08/21 07:31:47;;;;;;;10.48;10.18;;;26.70;99.90;;;;;;6177368;23;20281;-82
2023/08/21 07:34:14;;;;;;;10.52;10.23;;;26.60;99.90;;;;;;6171001;23;20227;-80
2023/08/21 07:36:41;;;;;;;10.65;10.35;;;26.60;99.90;;;;;;6169469;23;20244;-81
2023/08/21 07:39:08;;;;;;;10.57;10.27;;;26.60;99.90;;;;;;6170071;23;20216;-79
2023/08/21 07:41:36;;;;;;;10.90;10.60;;;26.40;99.90;;;;;;6169530;23;20200;-78
2023/08/21 07:44:04;;;;;;;10.80;10.50;;;26.30;99.90;;;;;;6164830;23;20264;-78
2023/08/21 07:46:31;;;;;;;10.82;10.52;;;26.40;99.90;;;;;;6164917;23;20220;-78
2023/08/21 07:48:58;;;;;;;10.98;10.68;;;26.30;99.90;;;;;;6164307;23;20264;-78
2023/08/21 07:51:25;;;;;;;11.43;11.02;;;26.40;99.90;;;;;;6165597;23;20239;-78
2023/08/21 07:53:52;;;;;;;11.68;11.27;;;26.30;99.90;;;;;;6167163;23;20284;-79
2023/08/21 07:56:19;;;;;;;11.45;11.05;;;26.50;99.90;;;;;;6172868;23;20220;-77
2023/08/21 07:58:47;;;;;;;11.48;11.07;;;26.60;99.90;;;;;;6171866;23;20256;-76
2023/08/21 08:01:14;;;;;;;11.10;10.80;;;26.70;99.90;;;;;;6170094;23;20238;-77
2023/08/21 08:03:41;;;;;;;11.25;10.95;;;26.90;99.90;;;;;;6167846;23;20194;-74
2023/08/21 08:06:08;;;;;;;11.38;11.00;;;26.90;99.90;;;;;;6165103;23;20192;-75
2023/08/21 08:08:35;;;;;;;11.13;10.82;;;27.10;99.90;;;;;;6164138;23;20283;-76
2023/08/21 08:11:03;;;;;;;11.02;10.73;;;27.20;99.90;;;;;;6163389;23;20207;-76
2023/08/21 08:13:31;;;;;;;11.18;10.88;;;27.40;99.90;;;;;;6163072;23;20215;-75
2023/08/21 08:15:59;;;;;;;11.32;11.02;;;27.50;99.90;;;;;;6164348;23;20192;-76
2023/08/21 08:18:26;;;;;;;11.27;10.98;;;27.70;99.90;;;;;;6165334;23;20243;-77
2023/08/21 08:20:53;;;;;;;11.10;10.80;;;27.80;99.90;;;;;;6168513;23;20214;-77
2023/08/21 08:23:23;;;;;;;11.02;10.73;;;28.00;99.90;;;;;;6165289;23;20199;-75
2023/08/21 08:25:50;;;;;;;11.10;10.80;;;28.00;99.90;;;;;;6164713;23;20200;-76
2023/08/21 08:28:17;;;;;;;11.00;10.70;;;27.90;99.90;;;;;;6164819;23;20263;-75
2023/08/21 08:30:44;;;;;;;10.98;10.68;;;28.00;99.90;;;;;;6164398;23;20244;-77
2023/08/21 08:33:12;;;;;;;11.23;10.93;;;28.20;99.90;;;;;;6164593;23;20196;-75
2023/08/21 08:35:40;;;;;;;11.60;11.20;;;28.10;99.90;;;;;;6163855;23;20267;-76
2023/08/21 08:38:07;;;;;;;11.20;10.90;;;28.30;99.90;;;;;;6163929;23;20668;-76
2023/08/21 08:40:36;;;;;;;11.18;10.88;;;28.10;99.90;;;;;;6163441;23;20196;-76
2023/08/21 08:43:05;;;;;;;11.30;11.00;;;28.10;99.90;;;;;;6163555;23;20267;-77
2023/08/21 08:45:34;;;;;;;11.38;11.07;;;28.30;99.90;;;;;;6164535;23;20662;-76
2023/08/21 08:48:02;;;;;;;11.13;10.82;;;28.50;99.90;;;;;;6162839;23;20218;-75
2023/08/21 08:50:32;;;;;;;11.20;10.90;;;28.50;99.90;;;;;;6163472;23;20241;-76
2023/08/21 08:53:00;;;;;;;11.32;11.00;;;28.90;99.90;;;;;;6163595;23;20215;-76
2023/08/21 08:55:27;;;;;;;11.38;11.07;;;29.00;99.90;;;;;;6175416;23;20232;-77
2023/08/21 08:57:55;;;;;;;11.32;11.02;;;29.20;99.90;;;;;;6164499;23;20280;-76
2023/08/21 09:00:22;;;;;;;11.60;11.20;;;29.30;99.90;;;;;;6163673;23;20231;-76
2023/08/21 09:02:49;;;;;;;11.10;10.80;;;29.60;99.90;;;;;;6162329;23;20200;-76
2023/08/21 09:05:16;;;;;;;11.05;10.75;;;29.90;99.90;;;;;;6163187;23;20200;-77
2023/08/21 09:07:45;;;;;;;11.30;11.00;;;29.90;99.90;;;;;;6163147;23;20210;-77
2023/08/21 09:10:16;;;;;;;11.13;10.82;;;30.00;99.90;;;;;;6163154;23;20203;-77
2023/08/21 09:12:47;;;;;;;11.10;10.80;;;30.40;99.90;;;;;;6162825;23;20684;-76
2023/08/21 09:15:14;;;;;;;11.00;10.70;;;30.50;99.90;;;;;;6163530;23;20193;-76
2023/08/21 09:17:41;;;;;;;11.15;10.85;;;30.80;99.90;;;;;;6163712;23;20200;-76
2023/08/21 09:20:10;;;;;;;11.13;10.82;;;31.00;99.90;;;;;;6163488;23;20196;-75
2023/08/21 09:22:37;;;;;;;11.10;10.80;;;31.10;99.90;;;;;;6163301;23;20203;-75
2023/08/21 09:25:10;;;;;;;11.23;10.93;;;30.90;99.90;;;;;;6163527;23;20275;-75
2023/08/21 09:27:39;;;;;;;11.27;10.98;;;31.00;99.90;;;;;;6163209;23;20322;-74
2023/08/21 09:30:09;;;;;;;11.35;11.05;;;31.40;99.90;;;;;;6162792;23;20231;-75
2023/08/21 09:32:55;;;;;;;11.32;11.02;;;31.70;99.90;;;;;;6162795;23;20218;-75
2023/08/21 09:35:23;;;;;;;11.20;10.90;;;31.90;99.90;;;;;;6163271;23;20199;-75
2023/08/21 09:37:52;;;;;;;11.10;10.80;;;32.20;99.90;;;;;;6163143;23;20247;-75
2023/08/21 09:40:21;;;;;;;11.07;10.77;;;32.50;99.90;;;;;;6162755;23;20204;-74
2023/08/21 09:42:54;;;;;;;10.90;10.60;;;32.50;99.90;;;;;;6163182;23;20217;-75
2023/08/21 09:45:24;;;;;;;11.20;10.90;;;32.80;99.90;;;;;;6163771;23;20217;-76
2023/08/21 09:47:52;;;;;;;11.07;10.77;;;32.90;99.90;;;;;;6163534;23;20197;-75
2023/08/21 09:50:20;;;;;;;11.00;10.70;;;33.00;99.90;;;;;;6162989;23;20204;-76
2023/08/21 09:52:47;;;;;;;11.20;10.90;;;32.60;99.90;;;;;;6162649;23;20283;-75
2023/08/21 09:55:15;;;;;;;11.05;10.75;;;32.70;99.90;;;;;;6176866;23;20248;-75
2023/08/21 09:57:43;;;;;;;10.93;10.63;;;32.80;99.90;;;;;;6163696;23;20271;-76
2023/08/21 10:00:15;;;;;;;11.13;10.82;;;32.30;99.90;;;;;;6163040;23;21099;-75
2023/08/21 10:02:45;;;;;;;10.88;10.57;;;32.10;99.90;;;;;;6162731;23;20208;-75
2023/08/21 10:05:14;;;;;;;10.90;10.60;;;32.30;99.90;;;;;;6163598;23;20204;-76
2023/08/21 10:07:43;;;;;;;10.98;10.68;;;32.80;99.90;;;;;;6163194;23;20196;-77
2023/08/21 10:10:12;;;;;;;10.82;10.52;;;33.30;99.90;;;;;;6162680;23;20208;-78
2023/08/21 10:12:39;;;;;;;10.93;10.63;;;33.70;99.90;;;;;;6161602;23;20311;-78
2023/08/21 10:15:09;;;;;;;10.50;10.20;;;33.80;99.90;;;;;;6163186;23;20201;-78
2023/08/21 10:17:37;;;;;;;10.88;10.57;;;33.40;99.90;;;;;;6162768;23;20250;-78
2023/08/21 10:20:07;;;;;;;10.90;10.60;;;33.80;99.90;;;;;;6163219;23;20196;-78
2023/08/21 10:22:43;;;;;;;10.80;10.50;;;33.90;99.90;;;;;;6163868;23;20228;-78
2023/08/21 10:25:21;;;;;;;10.98;10.68;;;33.70;99.90;;;;;;6165802;23;20210;-78
2023/08/21 10:27:51;;;;;;;10.30;10.00;;;33.90;99.90;;;;;;6164277;23;20196;-78
2023/08/21 10:30:24;;;;;;;10.35;10.05;;;34.10;99.90;;;;;;6163420;23;20192;-78
2023/08/21 10:32:52;;;;;;;10.60;10.30;;;34.20;99.90;;;;;;6163129;23;20246;-79
2023/08/21 10:35:22;;;;;;;10.55;10.25;;;34.50;99.90;;;;;;6164062;23;20282;-79
2023/08/21 10:38:12;;;;;;;10.32;10.02;;;34.90;99.90;;;;;;6164584;23;20291;-79
2023/08/21 10:40:41;;;;;;;10.50;10.20;;;35.20;99.90;;;;;;6165027;23;20276;-81
2023/08/21 10:43:40;;;;;;;11.10;10.80;;;35.20;99.90;;;;;;6169433;23;20231;-84
2023/08/21 10:46:09;;;;;;;11.00;10.70;;;34.80;99.90;;;;;;6169501;23;20204;-81
2023/08/21 10:48:36;;;;;;;11.20;10.90;;;34.80;99.90;;;;;;6169375;23;20263;-81
2023/08/21 10:51:07;;;;;;;11.10;10.80;;;35.10;99.90;;;;;;6168885;23;20208;-81
2023/08/21 10:53:34;;;;;;;11.10;10.80;;;34.70;99.90;;;;;;6169019;23;20192;-80
2023/08/21 10:56:03;;;;;;;11.25;10.95;;;35.00;99.90;;;;;;6169917;23;20200;-81
2023/08/21 10:58:36;;;;;;;10.80;10.50;;;35.40;99.90;;;;;;6179091;22;20177;-81
2023/08/21 11:01:03;;;;;;;10.90;10.60;;;35.50;99.90;;;;;;6172209;23;20199;-81
2023/08/21 11:03:32;;;;;;;11.07;10.77;;;35.50;99.90;;;;;;6187640;23;20180;-81
2023/08/21 11:06:08;;;;;;;11.00;10.70;;;35.70;99.90;;;;;;6171107;23;20196;-82
2023/08/21 11:08:37;;;;;;;11.13;10.82;;;35.70;99.90;;;;;;6167097;23;20207;-80
2023/08/21 11:11:06;;;;;;;11.05;10.75;;;35.90;99.90;;;;;;6167099;23;20197;-81
2023/08/21 11:13:34;;;;;;;11.20;10.90;;;35.90;99.90;;;;;;6166227;23;20287;-81
2023/08/21 11:16:03;;;;;;;11.20;10.90;;;36.10;99.90;;;;;;6168006;23;20227;-81
2023/08/21 11:18:36;;;;;;;11.05;10.75;;;36.00;99.90;;;;;;6168903;23;20200;-81
2023/08/21 11:21:08;;;;;;;11.25;10.95;;;36.00;99.90;;;;;;6168698;23;20279;-81
2023/08/21 11:23:37;;;;;;;11.27;10.98;;;36.10;99.90;;;;;;6168430;23;20196;-81
2023/08/21 11:26:05;;;;;;;11.25;10.95;;;36.00;99.90;;;;;;6168346;23;20206;-81
2023/08/21 11:28:33;;;;;;;11.48;11.07;;;36.20;99.90;;;;;;6168726;23;20230;-81
2023/08/21 11:31:00;;;;;;;11.20;10.90;;;36.40;99.90;;;;;;6168379;23;20283;-81
2023/08/21 11:33:29;;;;;;;11.52;11.13;;;36.50;99.90;;;;;;6167533;23;20227;-80
2023/08/21 11:35:58;;;;;;;11.32;11.02;;;36.50;99.90;;;;;;6168186;23;20204;-81
2023/08/21 11:38:27;;;;;;;11.10;10.80;;;36.70;99.90;;;;;;6168141;23;20260;-81
2023/08/21 11:40:57;;;;;;;11.38;11.07;;;36.70;99.90;;;;;;6168811;23;20188;-81
2023/08/21 11:43:36;;;;;;;11.60;11.20;;;36.90;99.90;;;;;;6168199;23;20419;-82
2023/08/21 11:46:04;;;;;;;11.35;11.05;;;36.70;99.90;;;;;;6171879;23;20192;-82
2023/08/21 11:48:31;;;;;;;11.60;11.20;;;37.00;99.90;;;;;;6169831;23;20283;-81
2023/08/21 11:51:00;;;;;;;11.45;11.15;;;37.30;99.90;;;;;;6168974;23;20691;-79
2023/08/21 11:53:36;;;;;;;11.45;11.15;;;37.30;99.90;;;;;;6167787;23;20188;-80
2023/08/21 11:56:03;;;;;;;11.35;11.05;;;37.50;99.90;;;;;;6167944;23;20223;-80
2023/08/21 11:58:31;;;;;;;11.43;11.13;;;37.30;99.90;;;;;;6168390;23;20220;-80
2023/08/21 12:01:04;;;;;;;11.27;10.98;;;37.40;99.90;;;;;;6168217;23;20256;-80
2023/08/21 12:03:37;;;;;;;11.00;10.70;;;37.10;99.90;;;;;;6177370;22;20199;-81
2023/08/21 12:06:08;;;;;;;11.02;10.73;;;37.00;99.90;;;;;;6166991;23;20220;-81
2023/08/21 12:08:35;;;;;;;11.30;11.00;;;36.90;99.90;;;;;;6168088;23;20228;-80
2023/08/21 12:11:02;;;;;;;11.40;11.10;;;37.20;99.90;;;;;;6169701;23;20200;-80
2023/08/21 12:13:30;;;;;;;11.07;10.77;;;37.30;99.90;;;;;;6176248;23;20196;-79
2023/08/21 12:15:57;;;;;;;11.50;11.20;;;37.50;99.90;;;;;;6181730;23;20219;-80
2023/08/21 12:18:24;;;;;;;11.02;10.73;;;37.80;99.90;;;;;;6182296;23;20192;-80
2023/08/21 12:20:51;;;;;;;11.32;11.02;;;37.70;99.90;;;;;;6181994;23;20230;-79
2023/08/21 12:23:20;;;;;;;11.23;10.93;;;37.60;99.90;;;;;;6181105;23;20227;-79
2023/08/21 12:25:47;;;;;;;11.27;10.98;;;37.70;99.90;;;;;;6180603;23;20287;-80
2023/08/21 12:28:14;;;;;;;11.25;10.95;;;38.00;99.90;;;;;;6182167;23;20188;-80
2023/08/21 12:30:41;;;;;;;11.07;10.77;;;38.30;99.90;;;;;;6180257;23;20216;-79
2023/08/21 12:33:08;;;;;;;11.15;10.85;;;38.50;99.90;;;;;;6173800;23;20216;-79
2023/08/21 12:35:35;;;;;;;11.10;10.80;;;38.60;99.90;;;;;;6173066;23;20192;-80
2023/08/21 12:38:05;;;;;;;11.20;10.90;;;38.70;99.90;;;;;;6169511;23;20191;-79
2023/08/21 12:40:33;;;;;;;11.27;10.98;;;38.40;99.90;;;;;;6169279;23;20200;-80